sensor_id;sensor_type;location;lat;lon;timestamp;pressure;altitude;pressure_sealevel;temperature;humidity
62524;BME280;53689;56.878;60.672;2023-05-16T00:01:15;98513.28;;;20.51;28.19
62524;BME280;53689;56.878;60.672;2023-05-16T00:03:42;98515.59;;;20.54;28.14
62524;BME280;53689;56.878;60.672;2023-05-16T00:06:10;98517.09;;;20.57;28.14
62524;BME280;53689;56.878;60.672;2023-05-16T00:08:37;98514.56;;;20.55;27.64
62524;BME280;53689;56.878;60.672;2023-05-16T00:11:04;98508.84;;;20.58;27.60
62524;BME280;53689;56.878;60.672;2023-05-16T00:13:33;98511.72;;;20.57;27.80
62524;BME280;53689;56.878;60.672;2023-05-16T00:16:00;98517.91;;;20.57;28.07
62524;BME280;53689;56.878;60.672;2023-05-16T00:18:27;98515.78;;;20.52;27.98
62524;BME280;53689;56.878;60.672;2023-05-16T00:20:54;98517.63;;;20.52;28.34
62524;BME280;53689;56.878;60.672;2023-05-16T00:23:22;98517.81;;;20.50;27.87
62524;BME280;53689;56.878;60.672;2023-05-16T00:25:49;98521.34;;;20.51;28.07
62524;BME280;53689;56.878;60.672;2023-05-16T00:28:17;98522.16;;;20.51;27.99
62524;BME280;53689;56.878;60.672;2023-05-16T00:30:45;98523.28;;;20.57;28.25
62524;BME280;53689;56.878;60.672;2023-05-16T00:33:14;98523.03;;;20.52;27.59
62524;BME280;53689;56.878;60.672;2023-05-16T00:35:42;98525.31;;;20.55;28.55
62524;BME280;53689;56.878;60.672;2023-05-16T00:38:10;98535.28;;;20.55;27.75
62524;BME280;53689;56.878;60.672;2023-05-16T00:40:37;98526.53;;;20.52;28.23
62524;BME280;53689;56.878;60.672;2023-05-16T00:43:04;98535.44;;;20.53;27.72
62524;BME280;53689;56.878;60.672;2023-05-16T00:45:31;98529.91;;;20.55;28.04
62524;BME280;53689;56.878;60.672;2023-05-16T00:48:00;98528.41;;;20.52;28.03
62524;BME280;53689;56.878;60.672;2023-05-16T00:50:27;98528.66;;;20.57;27.84
62524;BME280;53689;56.878;60.672;2023-05-16T00:52:55;98536.28;;;20.54;27.69
62524;BME280;53689;56.878;60.672;2023-05-16T00:55:22;98540.66;;;20.55;28.14
62524;BME280;53689;56.878;60.672;2023-05-16T00:57:49;98541.56;;;20.62;27.95
62524;BME280;53689;56.878;60.672;2023-05-16T01:00:18;98544.25;;;20.77;27.33
62524;BME280;53689;56.878;60.672;2023-05-16T01:02:45;98548.81;;;21.06;26.85
62524;BME280;53689;56.878;60.672;2023-05-16T01:05:15;98544.59;;;21.34;26.76
62524;BME280;53689;56.878;60.672;2023-05-16T01:07:44;98548.16;;;21.19;26.95
62524;BME280;53689;56.878;60.672;2023-05-16T01:10:11;98547.81;;;20.92;27.11
62524;BME280;53689;56.878;60.672;2023-05-16T01:12:41;98552.16;;;20.78;26.99
62524;BME280;53689;56.878;60.672;2023-05-16T01:15:12;98553.72;;;20.73;27.75
62524;BME280;53689;56.878;60.672;2023-05-16T01:17:44;98564.19;;;20.68;27.80
62524;BME280;53689;56.878;60.672;2023-05-16T01:20:16;98563.56;;;20.65;27.51
62524;BME280;53689;56.878;60.672;2023-05-16T01:22:50;98555.94;;;20.69;27.46
62524;BME280;53689;56.878;60.672;2023-05-16T01:25:21;98554.84;;;20.63;27.45
62524;BME280;53689;56.878;60.672;2023-05-16T01:27:54;98558.94;;;20.59;27.89
62524;BME280;53689;56.878;60.672;2023-05-16T01:30:23;98558.56;;;20.62;27.43
62524;BME280;53689;56.878;60.672;2023-05-16T01:32:51;98560.38;;;20.62;27.37
62524;BME280;53689;56.878;60.672;2023-05-16T01:35:18;98563.09;;;20.62;27.26
62524;BME280;53689;56.878;60.672;2023-05-16T01:37:47;98562.53;;;20.66;27.51
62524;BME280;53689;56.878;60.672;2023-05-16T01:40:16;98558.56;;;20.62;27.59
62524;BME280;53689;56.878;60.672;2023-05-16T01:42:48;98566.25;;;20.65;27.41
62524;BME280;53689;56.878;60.672;2023-05-16T01:45:19;98568.47;;;20.62;27.92
62524;BME280;53689;56.878;60.672;2023-05-16T01:47:48;98568.28;;;20.63;27.17
62524;BME280;53689;56.878;60.672;2023-05-16T01:50:17;98567.19;;;20.73;27.26
62524;BME280;53689;56.878;60.672;2023-05-16T01:52:49;98574.59;;;20.71;27.33
62524;BME280;53689;56.878;60.672;2023-05-16T01:55:18;98571.72;;;20.72;27.67
62524;BME280;53689;56.878;60.672;2023-05-16T01:57:47;98575.25;;;20.73;27.39
62524;BME280;53689;56.878;60.672;2023-05-16T02:00:15;98569.50;;;20.76;26.93
62524;BME280;53689;56.878;60.672;2023-05-16T02:02:43;98582.69;;;20.71;28.02
62524;BME280;53689;56.878;60.672;2023-05-16T02:05:10;98580.00;;;20.71;27.30
62524;BME280;53689;56.878;60.672;2023-05-16T02:07:38;98581.28;;;20.75;27.32
62524;BME280;53689;56.878;60.672;2023-05-16T02:10:05;98581.28;;;20.75;27.46
62524;BME280;53689;56.878;60.672;2023-05-16T02:12:34;98583.50;;;20.71;27.69
62524;BME280;53689;56.878;60.672;2023-05-16T02:15:01;98578.25;;;20.78;27.34
62524;BME280;53689;56.878;60.672;2023-05-16T02:17:28;98585.38;;;20.71;27.42
62524;BME280;53689;56.878;60.672;2023-05-16T02:19:57;98590.38;;;20.74;27.06
62524;BME280;53689;56.878;60.672;2023-05-16T02:22:26;98595.13;;;20.72;27.66
62524;BME280;53689;56.878;60.672;2023-05-16T02:24:53;98586.66;;;20.75;27.05
62524;BME280;53689;56.878;60.672;2023-05-16T02:27:20;98589.81;;;20.78;27.19
62524;BME280;53689;56.878;60.672;2023-05-16T02:29:47;98587.47;;;20.84;27.45
62524;BME280;53689;56.878;60.672;2023-05-16T02:32:14;98584.94;;;20.82;27.54
62524;BME280;53689;56.878;60.672;2023-05-16T02:34:42;98590.66;;;20.79;27.46
62524;BME280;53689;56.878;60.672;2023-05-16T02:37:10;98588.41;;;20.68;27.50
62524;BME280;53689;56.878;60.672;2023-05-16T02:39:39;98586.00;;;20.73;27.28
62524;BME280;53689;56.878;60.672;2023-05-16T02:42:06;98593.97;;;20.51;27.94
62524;BME280;53689;56.878;60.672;2023-05-16T02:44:34;98597.53;;;20.05;27.37
62524;BME280;53689;56.878;60.672;2023-05-16T02:47:02;98604.09;;;19.79;27.19
62524;BME280;53689;56.878;60.672;2023-05-16T02:49:29;98605.34;;;19.60;27.71
62524;BME280;53689;56.878;60.672;2023-05-16T02:51:56;98604.00;;;19.64;26.56
62524;BME280;53689;56.878;60.672;2023-05-16T02:54:24;98602.00;;;19.89;27.09
62524;BME280;53689;56.878;60.672;2023-05-16T02:56:52;98604.41;;;20.07;27.39
62524;BME280;53689;56.878;60.672;2023-05-16T02:59:19;98602.69;;;20.15;27.06
62524;BME280;53689;56.878;60.672;2023-05-16T03:01:46;98605.97;;;20.25;27.00
62524;BME280;53689;56.878;60.672;2023-05-16T03:04:13;98609.88;;;20.37;26.90
62524;BME280;53689;56.878;60.672;2023-05-16T03:06:40;98606.16;;;20.38;26.44
62524;BME280;53689;56.878;60.672;2023-05-16T03:09:07;98605.91;;;20.33;27.02
62524;BME280;53689;56.878;60.672;2023-05-16T03:11:36;98606.38;;;20.37;26.60
62524;BME280;53689;56.878;60.672;2023-05-16T03:14:04;98613.47;;;20.30;27.56
62524;BME280;53689;56.878;60.672;2023-05-16T03:16:31;98614.66;;;20.27;27.34
62524;BME280;53689;56.878;60.672;2023-05-16T03:18:58;98612.94;;;20.34;26.98
62524;BME280;53689;56.878;60.672;2023-05-16T03:21:26;98619.63;;;20.38;27.32
62524;BME280;53689;56.878;60.672;2023-05-16T03:23:53;98613.41;;;20.38;27.21
62524;BME280;53689;56.878;60.672;2023-05-16T03:26:20;98618.63;;;20.40;27.21
62524;BME280;53689;56.878;60.672;2023-05-16T03:28:51;98631.22;;;20.39;27.10
62524;BME280;53689;56.878;60.672;2023-05-16T03:31:18;98617.78;;;20.39;27.30
62524;BME280;53689;56.878;60.672;2023-05-16T03:33:46;98616.78;;;20.55;27.58
62524;BME280;53689;56.878;60.672;2023-05-16T03:36:13;98618.81;;;20.53;27.45
62524;BME280;53689;56.878;60.672;2023-05-16T03:38:41;98614.41;;;20.60;27.34
62524;BME280;53689;56.878;60.672;2023-05-16T03:41:08;98607.69;;;20.56;27.59
62524;BME280;53689;56.878;60.672;2023-05-16T03:43:35;98618.81;;;20.53;27.25
62524;BME280;53689;56.878;60.672;2023-05-16T03:46:04;98619.19;;;20.50;26.71
62524;BME280;53689;56.878;60.672;2023-05-16T03:48:31;98615.88;;;20.63;27.50
62524;BME280;53689;56.878;60.672;2023-05-16T03:50:58;98609.19;;;20.59;27.08
62524;BME280;53689;56.878;60.672;2023-05-16T03:53:26;98607.69;;;20.56;27.73
62524;BME280;53689;56.878;60.672;2023-05-16T03:55:53;98609.13;;;20.67;26.95
62524;BME280;53689;56.878;60.672;2023-05-16T03:58:20;98617.34;;;20.65;26.98
62524;BME280;53689;56.878;60.672;2023-05-16T04:00:47;98611.81;;;20.67;27.66
62524;BME280;53689;56.878;60.672;2023-05-16T04:03:16;98618.78;;;20.76;27.80
62524;BME280;53689;56.878;60.672;2023-05-16T04:05:44;98622.97;;;20.79;27.13
62524;BME280;53689;56.878;60.672;2023-05-16T04:08:11;98624.31;;;20.75;27.48
62524;BME280;53689;56.878;60.672;2023-05-16T04:10:38;98622.84;;;20.72;26.92
62524;BME280;53689;56.878;60.672;2023-05-16T04:13:05;98621.59;;;20.83;27.39
62524;BME280;53689;56.878;60.672;2023-05-16T04:15:32;98624.22;;;20.68;27.47
62524;BME280;53689;56.878;60.672;2023-05-16T04:17:59;98622.00;;;20.72;27.29
62524;BME280;53689;56.878;60.672;2023-05-16T04:20:28;98612.84;;;20.81;27.19
62524;BME280;53689;56.878;60.672;2023-05-16T04:22:58;98618.81;;;20.91;27.67
62524;BME280;53689;56.878;60.672;2023-05-16T04:25:25;98614.41;;;20.75;27.63
62524;BME280;53689;56.878;60.672;2023-05-16T04:27:52;98611.63;;;20.69;27.46
62524;BME280;53689;56.878;60.672;2023-05-16T04:30:20;98608.59;;;20.87;27.48
62524;BME280;53689;56.878;60.672;2023-05-16T04:32:48;98614.59;;;20.74;27.24
62524;BME280;53689;56.878;60.672;2023-05-16T04:35:15;98613.94;;;20.72;28.04
62524;BME280;53689;56.878;60.672;2023-05-16T04:37:44;98620.63;;;20.76;27.98
62524;BME280;53689;56.878;60.672;2023-05-16T04:40:11;98616.81;;;20.70;27.30
62524;BME280;53689;56.878;60.672;2023-05-16T04:42:38;98622.91;;;20.49;27.11
62524;BME280;53689;56.878;60.672;2023-05-16T04:45:05;98608.25;;;20.51;26.94
62524;BME280;53689;56.878;60.672;2023-05-16T04:47:33;98615.13;;;20.54;27.28
62524;BME280;53689;56.878;60.672;2023-05-16T04:50:00;98620.13;;;20.57;27.33
62524;BME280;53689;56.878;60.672;2023-05-16T04:52:28;98620.78;;;20.59;27.71
62524;BME280;53689;56.878;60.672;2023-05-16T04:54:56;98614.09;;;20.55;27.32
62524;BME280;53689;56.878;60.672;2023-05-16T04:57:23;98616.00;;;20.70;27.03
62524;BME280;53689;56.878;60.672;2023-05-16T04:59:51;98619.50;;;20.70;27.26
62524;BME280;53689;56.878;60.672;2023-05-16T05:02:18;98624.38;;;20.51;28.48
62524;BME280;53689;56.878;60.672;2023-05-16T05:04:45;98618.84;;;20.68;27.75
62524;BME280;53689;56.878;60.672;2023-05-16T05:07:12;98615.06;;;20.77;27.18
62524;BME280;53689;56.878;60.672;2023-05-16T05:09:39;98625.09;;;20.69;27.20
62524;BME280;53689;56.878;60.672;2023-05-16T05:12:08;98620.44;;;20.77;26.78
62524;BME280;53689;56.878;60.672;2023-05-16T05:14:35;98625.81;;;20.77;26.74
62524;BME280;53689;56.878;60.672;2023-05-16T05:17:03;98617.59;;;20.79;26.20
62524;BME280;53689;56.878;60.672;2023-05-16T05:19:30;98611.69;;;20.84;26.56
62524;BME280;53689;56.878;60.672;2023-05-16T05:21:57;98623.22;;;20.69;26.15
62524;BME280;53689;56.878;60.672;2023-05-16T05:24:25;98615.31;;;20.68;26.35
62524;BME280;53689;56.878;60.672;2023-05-16T05:26:52;98617.94;;;20.76;26.11
62524;BME280;53689;56.878;60.672;2023-05-16T05:29:20;98614.22;;;20.77;26.28
62524;BME280;53689;56.878;60.672;2023-05-16T05:31:47;98612.69;;;20.83;26.46
62524;BME280;53689;56.878;60.672;2023-05-16T05:34:15;98613.16;;;21.16;25.85
62524;BME280;53689;56.878;60.672;2023-05-16T05:36:42;98612.84;;;20.81;25.63
62524;BME280;53689;56.878;60.672;2023-05-16T05:39:09;98620.22;;;20.87;25.66
62524;BME280;53689;56.878;60.672;2023-05-16T05:41:36;98632.94;;;20.55;26.07
62524;BME280;53689;56.878;60.672;2023-05-16T05:44:04;98623.72;;;20.49;26.16
62524;BME280;53689;56.878;60.672;2023-05-16T05:46:32;98617.59;;;20.79;25.18
62524;BME280;53689;56.878;60.672;2023-05-16T05:49:00;98617.44;;;20.57;25.56
62524;BME280;53689;56.878;60.672;2023-05-16T05:51:27;98621.44;;;20.61;25.25
62524;BME280;53689;56.878;60.672;2023-05-16T05:53:54;98623.84;;;20.56;24.60
62524;BME280;53689;56.878;60.672;2023-05-16T05:56:21;98623.47;;;20.44;24.81
62524;BME280;53689;56.878;60.672;2023-05-16T05:58:49;98628.19;;;20.57;24.88
62524;BME280;53689;56.878;60.672;2023-05-16T06:01:16;98630.78;;;20.50;24.75
62524;BME280;53689;56.878;60.672;2023-05-16T06:03:45;98622.63;;;20.82;25.02
62524;BME280;53689;56.878;60.672;2023-05-16T06:06:12;98627.63;;;20.47;25.09
62524;BME280;53689;56.878;60.672;2023-05-16T06:08:40;98624.16;;;20.76;24.88
62524;BME280;53689;56.878;60.672;2023-05-16T06:11:07;98631.59;;;20.74;24.82
62524;BME280;53689;56.878;60.672;2023-05-16T06:13:34;98628.22;;;21.11;24.17
62524;BME280;53689;56.878;60.672;2023-05-16T06:16:02;98628.13;;;20.65;24.31
62524;BME280;53689;56.878;60.672;2023-05-16T06:18:29;98634.25;;;20.59;24.88
62524;BME280;53689;56.878;60.672;2023-05-16T06:20:58;98628.75;;;20.68;24.83
62524;BME280;53689;56.878;60.672;2023-05-16T06:23:25;98630.22;;;20.93;24.57
62524;BME280;53689;56.878;60.672;2023-05-16T06:25:52;98626.44;;;21.03;24.36
62524;BME280;53689;56.878;60.672;2023-05-16T06:28:19;98629.09;;;21.33;24.53
62524;BME280;53689;56.878;60.672;2023-05-16T06:30:46;98621.97;;;21.10;23.73
62524;BME280;53689;56.878;60.672;2023-05-16T06:33:14;98631.63;;;21.04;26.55
62524;BME280;53689;56.878;60.672;2023-05-16T06:35:41;98624.94;;;20.85;24.33
62524;BME280;53689;56.878;60.672;2023-05-16T06:38:10;98620.50;;;21.07;24.37
62524;BME280;53689;56.878;60.672;2023-05-16T06:40:37;98625.41;;;21.04;23.83
62524;BME280;53689;56.878;60.672;2023-05-16T06:43:04;98621.59;;;21.28;24.48
62524;BME280;53689;56.878;60.672;2023-05-16T06:45:31;98621.03;;;21.33;24.13
62524;BME280;53689;56.878;60.672;2023-05-16T06:47:59;98619.34;;;21.47;24.29
62524;BME280;53689;56.878;60.672;2023-05-16T06:50:26;98618.50;;;21.46;24.45
62524;BME280;53689;56.878;60.672;2023-05-16T06:52:53;98616.31;;;21.35;24.17
62524;BME280;53689;56.878;60.672;2023-05-16T06:55:22;98618.50;;;21.46;24.21
62524;BME280;53689;56.878;60.672;2023-05-16T06:57:49;98610.84;;;21.65;24.53
62524;BME280;53689;56.878;60.672;2023-05-16T07:00:17;98608.34;;;21.63;24.15
62524;BME280;53689;56.878;60.672;2023-05-16T07:02:45;98610.66;;;21.67;24.66
62524;BME280;53689;56.878;60.672;2023-05-16T07:05:13;98604.09;;;21.54;24.46
62524;BME280;53689;56.878;60.672;2023-05-16T07:07:40;98606.25;;;21.44;24.63
62524;BME280;53689;56.878;60.672;2023-05-16T07:10:07;98616.06;;;21.52;24.44
62524;BME280;53689;56.878;60.672;2023-05-16T07:12:36;98605.44;;;21.28;23.72
62524;BME280;53689;56.878;60.672;2023-05-16T07:15:07;98607.88;;;21.23;23.30
62524;BME280;53689;56.878;60.672;2023-05-16T07:17:35;98607.22;;;21.06;23.73
62524;BME280;53689;56.878;60.672;2023-05-16T07:20:03;98604.34;;;21.07;23.33
62524;BME280;53689;56.878;60.672;2023-05-16T07:22:31;98602.59;;;21.00;23.63
62524;BME280;53689;56.878;60.672;2023-05-16T07:24:59;98604.53;;;21.21;23.87
62524;BME280;53689;56.878;60.672;2023-05-16T07:27:27;98608.78;;;21.00;23.84
62524;BME280;53689;56.878;60.672;2023-05-16T07:29:56;98607.03;;;20.92;23.66
62524;BME280;53689;56.878;60.672;2023-05-16T07:32:24;98606.81;;;20.79;23.08
62524;BME280;53689;56.878;60.672;2023-05-16T07:34:51;98602.84;;;20.90;23.77
62524;BME280;53689;56.878;60.672;2023-05-16T07:37:18;98599.78;;;21.23;23.32
62524;BME280;53689;56.878;60.672;2023-05-16T07:39:46;98593.75;;;21.21;23.29
62524;BME280;53689;56.878;60.672;2023-05-16T07:42:13;98584.88;;;21.42;23.49
62524;BME280;53689;56.878;60.672;2023-05-16T07:44:41;98589.59;;;21.55;23.54
62524;BME280;53689;56.878;60.672;2023-05-16T07:47:10;98583.06;;;21.65;23.96
62524;BME280;53689;56.878;60.672;2023-05-16T07:49:37;98588.56;;;21.56;24.07
62524;BME280;53689;56.878;60.672;2023-05-16T07:52:04;98591.63;;;21.68;23.40
62524;BME280;53689;56.878;60.672;2023-05-16T07:54:33;98591.50;;;21.40;25.02
62524;BME280;53689;56.878;60.672;2023-05-16T07:57:01;98597.47;;;21.20;23.83
62524;BME280;53689;56.878;60.672;2023-05-16T07:59:28;98588.75;;;21.03;23.88
62524;BME280;53689;56.878;60.672;2023-05-16T08:01:55;98580.31;;;21.06;23.81
62524;BME280;53689;56.878;60.672;2023-05-16T08:04:24;98576.59;;;21.07;23.85
62524;BME280;53689;56.878;60.672;2023-05-16T08:06:52;98579.63;;;21.19;23.46
62524;BME280;53689;56.878;60.672;2023-05-16T08:09:20;98573.22;;;21.05;23.98
62524;BME280;53689;56.878;60.672;2023-05-16T08:11:47;98575.91;;;21.05;23.70
62524;BME280;53689;56.878;60.672;2023-05-16T08:14:14;98573.69;;;21.09;23.52
62524;BME280;53689;56.878;60.672;2023-05-16T08:19:08;98569.44;;;20.99;23.35
62524;BME280;53689;56.878;60.672;2023-05-16T08:21:38;98568.88;;;21.04;23.60
62524;BME280;53689;56.878;60.672;2023-05-16T08:24:05;98565.63;;;20.93;24.43
62524;BME280;53689;56.878;60.672;2023-05-16T08:26:32;98569.81;;;20.96;23.70
62524;BME280;53689;56.878;60.672;2023-05-16T08:29:00;98556.34;;;20.96;23.74
62524;BME280;53689;56.878;60.672;2023-05-16T08:31:27;98561.72;;;21.11;23.88
62524;BME280;53689;56.878;60.672;2023-05-16T08:33:55;98567.13;;;20.96;23.63
62524;BME280;53689;56.878;60.672;2023-05-16T08:36:22;98551.34;;;20.93;23.57
62524;BME280;53689;56.878;60.672;2023-05-16T08:38:51;98563.13;;;21.07;23.67
62524;BME280;53689;56.878;60.672;2023-05-16T08:41:18;98561.59;;;21.34;23.12
62524;BME280;53689;56.878;60.672;2023-05-16T08:43:46;98554.09;;;21.30;23.32
62524;BME280;53689;56.878;60.672;2023-05-16T08:46:13;98550.75;;;21.28;23.42
62524;BME280;53689;56.878;60.672;2023-05-16T08:48:41;98551.50;;;21.21;23.95
62524;BME280;53689;56.878;60.672;2023-05-16T08:51:09;98553.81;;;21.10;23.21
62524;BME280;53689;56.878;60.672;2023-05-16T08:53:38;98559.97;;;21.03;24.01
62524;BME280;53689;56.878;60.672;2023-05-16T08:56:07;98545.97;;;20.93;23.06
62524;BME280;53689;56.878;60.672;2023-05-16T08:58:35;98545.97;;;21.08;23.85
62524;BME280;53689;56.878;60.672;2023-05-16T09:01:03;98550.97;;;21.11;23.58
62524;BME280;53689;56.878;60.672;2023-05-16T09:03:31;98551.81;;;20.97;23.66
62524;BME280;53689;56.878;60.672;2023-05-16T09:06:00;98544.28;;;21.07;24.18
62524;BME280;53689;56.878;60.672;2023-05-16T09:08:27;98541.50;;;21.15;24.32
62524;BME280;53689;56.878;60.672;2023-05-16T09:10:55;98542.56;;;21.36;23.43
62524;BME280;53689;56.878;60.672;2023-05-16T09:13:25;98540.34;;;21.40;23.89
62524;BME280;53689;56.878;60.672;2023-05-16T09:16:09;98545.09;;;21.23;23.71
62524;BME280;53689;56.878;60.672;2023-05-16T09:18:36;98536.94;;;21.16;23.65
62524;BME280;53689;56.878;60.672;2023-05-16T09:21:04;98534.16;;;21.09;24.53
62524;BME280;53689;56.878;60.672;2023-05-16T09:23:32;98523.28;;;21.17;23.84
62524;BME280;53689;56.878;60.672;2023-05-16T09:26:02;98523.50;;;21.38;23.78
62524;BME280;53689;56.878;60.672;2023-05-16T09:28:33;98527.97;;;21.45;23.69
62524;BME280;53689;56.878;60.672;2023-05-16T09:31:03;98536.22;;;21.44;23.46
62524;BME280;53689;56.878;60.672;2023-05-16T09:33:31;98537.28;;;21.28;23.26
62524;BME280;53689;56.878;60.672;2023-05-16T09:35:59;98547.13;;;21.20;23.61
62524;BME280;53689;56.878;60.672;2023-05-16T09:38:27;98529.69;;;21.16;23.65
62524;BME280;53689;56.878;60.672;2023-05-16T09:40:55;98536.75;;;21.17;23.66
62524;BME280;53689;56.878;60.672;2023-05-16T09:43:24;98531.53;;;21.16;23.64
62524;BME280;53689;56.878;60.672;2023-05-16T09:45:55;98537.53;;;21.33;23.67
62524;BME280;53689;56.878;60.672;2023-05-16T09:48:25;98528.06;;;21.37;23.47
62524;BME280;53689;56.878;60.672;2023-05-16T09:50:53;98530.66;;;21.45;23.45
62524;BME280;53689;56.878;60.672;2023-05-16T09:53:25;98524.94;;;21.55;23.60
62524;BME280;53689;56.878;60.672;2023-05-16T09:55:59;98525.16;;;21.39;23.80
62524;BME280;53689;56.878;60.672;2023-05-16T09:58:28;98533.00;;;21.33;23.65
62524;BME280;53689;56.878;60.672;2023-05-16T10:00:58;98534.97;;;21.25;23.57
62524;BME280;53689;56.878;60.672;2023-05-16T10:03:26;98532.66;;;21.21;23.24
62524;BME280;53689;56.878;60.672;2023-05-16T10:05:55;98531.63;;;21.23;23.61
62524;BME280;53689;56.878;60.672;2023-05-16T10:08:24;98526.31;;;21.29;23.28
62524;BME280;53689;56.878;60.672;2023-05-16T10:10:52;98525.09;;;21.32;23.67
62524;BME280;53689;56.878;60.672;2023-05-16T10:13:20;98524.06;;;21.33;23.61
62524;BME280;53689;56.878;60.672;2023-05-16T10:15:48;98520.56;;;21.32;23.90
62524;BME280;53689;56.878;60.672;2023-05-16T10:18:17;98518.69;;;21.33;24.17
62524;BME280;53689;56.878;60.672;2023-05-16T10:20:45;98513.81;;;21.43;24.28
62524;BME280;53689;56.878;60.672;2023-05-16T10:23:14;98517.72;;;21.56;23.78
62524;BME280;53689;56.878;60.672;2023-05-16T10:25:43;98512.78;;;21.59;23.63
62524;BME280;53689;56.878;60.672;2023-05-16T10:28:10;98515.69;;;21.43;24.86
62524;BME280;53689;56.878;60.672;2023-05-16T10:30:39;98512.38;;;21.41;24.40
62524;BME280;53689;56.878;60.672;2023-05-16T10:33:07;98518.50;;;21.34;24.26
62524;BME280;53689;56.878;60.672;2023-05-16T10:35:36;98523.31;;;21.39;23.91
62524;BME280;53689;56.878;60.672;2023-05-16T10:38:04;98526.88;;;21.40;23.97
62524;BME280;53689;56.878;60.672;2023-05-16T10:40:34;98522.69;;;21.37;24.49
62524;BME280;53689;56.878;60.672;2023-05-16T10:43:02;98516.09;;;21.40;23.70
62524;BME280;53689;56.878;60.672;2023-05-16T10:45:30;98533.09;;;21.62;23.68
62524;BME280;53689;56.878;60.672;2023-05-16T10:47:58;98529.34;;;21.78;24.13
62524;BME280;53689;56.878;60.672;2023-05-16T10:50:37;98529.41;;;21.85;23.18
62524;BME280;53689;56.878;60.672;2023-05-16T10:53:14;98528.44;;;21.71;23.80
62524;BME280;53689;56.878;60.672;2023-05-16T10:56:04;98522.13;;;21.63;24.07
62524;BME280;53689;56.878;60.672;2023-05-16T10:58:39;98525.84;;;21.62;23.88
62524;BME280;53689;56.878;60.672;2023-05-16T11:01:22;98526.81;;;21.55;24.40
62524;BME280;53689;56.878;60.672;2023-05-16T11:06:48;98525.91;;;21.47;24.28
62524;BME280;53689;56.878;60.672;2023-05-16T11:09:22;98528.31;;;21.42;24.55
62524;BME280;53689;56.878;60.672;2023-05-16T11:11:54;98523.59;;;21.44;24.49
62524;BME280;53689;56.878;60.672;2023-05-16T11:14:22;98523.59;;;21.44;24.16
62524;BME280;53689;56.878;60.672;2023-05-16T11:16:50;98523.59;;;21.44;23.74
62524;BME280;53689;56.878;60.672;2023-05-16T11:19:33;98521.53;;;21.46;24.16
62524;BME280;53689;56.878;60.672;2023-05-16T11:22:09;98516.22;;;21.53;23.98
62524;BME280;53689;56.878;60.672;2023-05-16T11:24:37;98523.22;;;21.47;24.14
62524;BME280;53689;56.878;60.672;2023-05-16T11:27:05;98528.19;;;21.51;24.38
62524;BME280;53689;56.878;60.672;2023-05-16T11:29:33;98524.81;;;21.42;24.24
62524;BME280;53689;56.878;60.672;2023-05-16T11:32:02;98525.63;;;21.42;24.18
62524;BME280;53689;56.878;60.672;2023-05-16T11:34:30;98527.75;;;21.47;24.06
62524;BME280;53689;56.878;60.672;2023-05-16T11:36:57;98524.59;;;21.43;24.26
62524;BME280;53689;56.878;60.672;2023-05-16T11:39:26;98522.19;;;21.48;23.75
62524;BME280;53689;56.878;60.672;2023-05-16T11:41:54;98516.16;;;21.46;23.97
62524;BME280;53689;56.878;60.672;2023-05-16T11:44:21;98520.34;;;21.49;23.98
62524;BME280;53689;56.878;60.672;2023-05-16T11:46:49;98525.25;;;21.45;23.90
62524;BME280;53689;56.878;60.672;2023-05-16T11:49:16;98526.09;;;21.46;24.09
62524;BME280;53689;56.878;60.672;2023-05-16T11:51:43;98520.06;;;21.44;23.72
62524;BME280;53689;56.878;60.672;2023-05-16T11:54:11;98518.56;;;21.41;23.78
62524;BME280;53689;56.878;60.672;2023-05-16T11:56:41;98520.25;;;21.42;23.94
62524;BME280;53689;56.878;60.672;2023-05-16T11:59:09;98516.72;;;21.42;23.91
62524;BME280;53689;56.878;60.672;2023-05-16T12:01:37;98519.59;;;21.40;23.76
62524;BME280;53689;56.878;60.672;2023-05-16T12:04:06;98519.34;;;21.35;24.77
62524;BME280;53689;56.878;60.672;2023-05-16T12:06:34;98518.56;;;21.41;23.63
62524;BME280;53689;56.878;60.672;2023-05-16T12:09:01;98516.72;;;21.42;23.88
62524;BME280;53689;56.878;60.672;2023-05-16T12:11:29;98521.91;;;21.43;24.13
62524;BME280;53689;56.878;60.672;2023-05-16T12:13:57;98514.50;;;21.45;24.62
62524;BME280;53689;56.878;60.672;2023-05-16T12:16:25;98514.50;;;21.45;24.36
62524;BME280;53689;56.878;60.672;2023-05-16T12:18:53;98520.50;;;21.47;24.46
62524;BME280;53689;56.878;60.672;2023-05-16T12:21:20;98513.63;;;21.45;24.09
62524;BME280;53689;56.878;60.672;2023-05-16T12:23:48;98511.00;;;21.52;23.88
62524;BME280;53689;56.878;60.672;2023-05-16T12:26:22;98514.56;;;21.52;24.32
62524;BME280;53689;56.878;60.672;2023-05-16T12:28:52;98506.44;;;21.67;24.20
62524;BME280;53689;56.878;60.672;2023-05-16T12:31:22;98518.34;;;21.58;24.17
62524;BME280;53689;56.878;60.672;2023-05-16T12:33:58;98519.09;;;21.52;24.57
62524;BME280;53689;56.878;60.672;2023-05-16T12:36:29;98518.72;;;21.55;24.05
62524;BME280;53689;56.878;60.672;2023-05-16T12:38:58;98518.91;;;21.53;24.42
62524;BME280;53689;56.878;60.672;2023-05-16T12:41:26;98525.78;;;21.56;24.16
62524;BME280;53689;56.878;60.672;2023-05-16T12:44:04;98526.16;;;21.53;24.11
62524;BME280;53689;56.878;60.672;2023-05-16T12:46:33;98520.91;;;21.44;24.01
62524;BME280;53689;56.878;60.672;2023-05-16T12:49:01;98520.69;;;21.46;23.99
62524;BME280;53689;56.878;60.672;2023-05-16T12:51:28;98522.63;;;21.52;23.91
62524;BME280;53689;56.878;60.672;2023-05-16T12:53:55;98519.94;;;21.52;23.67
62524;BME280;53689;56.878;60.672;2023-05-16T12:56:39;98513.53;;;21.53;24.07
62524;BME280;53689;56.878;60.672;2023-05-16T12:59:07;98516.66;;;21.57;24.09
62524;BME280;53689;56.878;60.672;2023-05-16T13:01:36;98521.88;;;21.58;23.60